Pagina principale
METAR-TAF:

METAR-TAF

Aeroporti :

Aeroporto di Firenze-Peretola

Firenze, Italia

latitudine: 43-48N, longitudine: 011-12E, altezza: 40 m

Osservazione

Il bollettino è stato emesso 23 minuti fa, alle 00:20 UTC
Vento 1 kt da direzioni variabili
Temperature 13°C
Umidità 77%
Pressione 1016 hPa
Visibilità 10 km o più
nessuna nube inferiore a 1500 m e nessun cumulonembo

METAR: LIRQ 310020Z VRB01KT CAVOK 13/09 Q1016

Ora: 02:43 (00:43 UTC)

Previsione

Il bollettino è stato emesso 1 ora e 43 minuti fa, alle 23:00 UTC
Previsione valida dal 31 alle 00 UTC al 31 alle 24 UTC
Vento 5 kt da direzioni variabili
Visibilità 10 km o più
Nubi sparse ad un'altezza di 5000 ft
Evoluzione graduale
dal 31 alle 09 UTC al 31 alle 11 UTC
Vento 10 kt da ovest/sud-ovest
Evoluzione graduale
dal 31 alle 16 UTC al 31 alle 18 UTC
Vento 5 kt da direzioni variabili

TAF: LIRQ 302300Z 3100/3124 VRB05KT 9999 SCT050 BECMG 3109/3111 25010KT BECMG 3116/3118 VRB05KT

Osservazioni e previsioni meteorologiche di più di 4000 aeroporti (messaggi METAR e TAF).

Le stazioni disponibili sono rappresentate dai dischi gialli e rossi sulla carta.

Puntare il mouse per vedere il nome della stazione.

Clicca sopra per visualizzare le osservazioni e previsioni meteorologiche.

Per cambiare la mappa : fare clic sui pulsanti verdi con una croce nera per ingrandire, il pulsante verde con un trattino per diminuire, o sulla freccia verde per le mappe adiacenti.


METAR-TAF: